Time,TemperatureF,DewpointF,PressureIn,WindDirection,WindDirectionDegrees,WindSpeedMPH,WindSpeedGustMPH,Humidity,HourlyPrecipIn,Conditions,Clouds,dailyrainin,SolarRadiationWatts/m^2,SoftwareType,DateUTC
2013-01-21 00:03:00,68.0,54.0,-100.00,East,96,18.0,30.0,62,0.00,,,0.00,19.000000,,2013-01-21 05:03:00,
2013-01-21 00:12:00,68.0,54.0,-100.00,East,96,18.0,30.0,62,0.00,,,0.00,19.000000,,2013-01-21 05:12:00,
2013-01-21 00:22:00,68.0,54.0,-100.00,East,96,18.0,30.0,62,0.00,,,0.00,19.000000,,2013-01-21 05:22:00,
2013-01-21 00:33:00,68.0,54.0,-100.00,East,96,18.0,30.0,62,0.00,,,0.00,19.000000,,2013-01-21 05:33:00,
2013-01-21 00:53:00,67.0,54.0,-100.00,East,83,18.0,27.0,64,0.00,,,0.00,1.000000,,2013-01-21 05:53:00,
2013-01-21 01:02:00,67.0,54.0,-100.00,East,83,18.0,27.0,64,0.00,,,0.00,1.000000,,2013-01-21 06:02:00,
2013-01-21 01:12:00,67.0,54.0,-100.00,East,83,18.0,27.0,64,0.00,,,0.00,1.000000,,2013-01-21 06:12:00,
2013-01-21 01:23:00,67.0,54.0,-100.00,East,83,18.0,27.0,64,0.00,,,0.00,1.000000,,2013-01-21 06:23:00,
2013-01-21 01:32:00,67.0,54.0,-100.00,East,83,18.0,27.0,64,0.00,,,0.00,1.000000,,2013-01-21 06:32:00,
2013-01-21 01:53:00,65.0,53.0,-100.00,ESE,113,17.0,24.0,66,0.00,,,0.00,1.000000,,2013-01-21 06:53:00,
2013-01-21 02:03:00,65.0,53.0,-100.00,ESE,113,17.0,24.0,66,0.00,,,0.00,1.000000,,2013-01-21 07:03:00,
2013-01-21 02:12:00,65.0,53.0,-100.00,ESE,113,17.0,24.0,66,0.00,,,0.00,1.000000,,2013-01-21 07:12:00,
2013-01-21 02:22:00,65.0,53.0,-100.00,ESE,113,17.0,24.0,66,0.00,,,0.00,1.000000,,2013-01-21 07:22:00,
2013-01-21 02:32:00,65.0,53.0,-100.00,ESE,113,17.0,24.0,66,0.00,,,0.00,1.000000,,2013-01-21 07:32:00,
2013-01-21 02:53:00,65.0,55.0,-100.00,East,92,15.0,27.0,69,0.00,,,0.00,1.000000,,2013-01-21 07:53:00,
2013-01-21 03:02:00,65.0,55.0,-100.00,East,92,15.0,27.0,69,0.00,,,0.00,1.000000,,2013-01-21 08:02:00,
2013-01-21 03:13:00,65.0,55.0,-100.00,East,92,15.0,27.0,69,0.00,,,0.00,1.000000,,2013-01-21 08:13:00,
2013-01-21 03:22:00,65.0,55.0,-100.00,East,92,15.0,27.0,69,0.00,,,0.00,1.000000,,2013-01-21 08:22:00,
2013-01-21 03:32:00,65.0,55.0,-100.00,East,92,15.0,27.0,69,0.00,,,0.00,1.000000,,2013-01-21 08:32:00,
2013-01-21 03:53:00,65.0,55.0,-100.00,East,96,15.0,21.0,69,0.00,,,0.00,1.000000,,2013-01-21 08:53:00,
2013-01-21 04:02:00,65.0,55.0,-100.00,East,96,15.0,21.0,69,0.00,,,0.00,1.000000,,2013-01-21 09:02:00,
2013-01-21 04:12:00,65.0,55.0,-100.00,East,96,15.0,21.0,69,0.00,,,0.00,1.000000,,2013-01-21 09:12:00,
2013-01-21 04:22:00,65.0,55.0,-100.00,East,96,15.0,21.0,69,0.00,,,0.00,1.000000,,2013-01-21 09:22:00,
2013-01-21 04:32:00,65.0,55.0,-100.00,East,96,15.0,21.0,69,0.00,,,0.00,1.000000,,2013-01-21 09:32:00,
2013-01-21 04:53:00,64.0,53.0,-100.00,East,96,18.0,24.0,68,0.00,,,-99.99,1.000000,,2013-01-21 09:53:00,
2013-01-21 05:02:00,64.0,53.0,-100.00,East,96,18.0,24.0,68,0.00,,,-99.99,1.000000,,2013-01-21 10:02:00,
2013-01-21 05:12:00,64.0,53.0,-100.00,East,96,18.0,24.0,68,0.00,,,-99.99,1.000000,,2013-01-21 10:12:00,
2013-01-21 05:22:00,64.0,53.0,-100.00,East,96,18.0,24.0,68,0.00,,,-99.99,1.000000,,2013-01-21 10:22:00,
2013-01-21 05:32:00,64.0,53.0,-100.00,East,96,18.0,24.0,68,0.00,,,-99.99,1.000000,,2013-01-21 10:32:00,
2013-01-21 05:53:00,64.0,53.0,-100.00,East,87,18.0,25.0,68,0.00,,,0.00,1.000000,,2013-01-21 10:53:00,
2013-01-21 06:02:00,64.0,53.0,-100.00,East,87,18.0,25.0,68,0.00,,,0.00,1.000000,,2013-01-21 11:02:00,
2013-01-21 06:12:00,64.0,53.0,-100.00,East,87,18.0,25.0,68,0.00,,,0.00,1.000000,,2013-01-21 11:12:00,
2013-01-21 06:22:00,64.0,53.0,-100.00,East,87,18.0,25.0,68,0.00,,,0.00,1.000000,,2013-01-21 11:22:00,
2013-01-21 06:32:00,64.0,53.0,-100.00,East,87,18.0,25.0,68,0.00,,,0.00,1.000000,,2013-01-21 11:32:00,
2013-01-21 07:02:00,64.0,55.0,-100.00,East,96,18.0,25.0,72,0.00,,,0.00,1.000000,,2013-01-21 12:02:00,
2013-01-21 07:12:00,64.0,55.0,-100.00,East,96,18.0,25.0,72,0.00,,,0.00,1.000000,,2013-01-21 12:12:00,
2013-01-21 07:22:00,64.0,55.0,-100.00,East,96,18.0,25.0,72,0.00,,,0.00,1.000000,,2013-01-21 12:22:00,
2013-01-21 07:32:00,64.0,55.0,-100.00,East,96,18.0,25.0,72,0.00,,,0.00,1.000000,,2013-01-21 12:32:00,
2013-01-21 07:53:00,65.0,55.0,-100.00,East,91,18.0,28.0,70,0.00,,,0.00,1.000000,,2013-01-21 12:53:00,
2013-01-21 08:02:00,65.0,55.0,-100.00,East,91,18.0,28.0,70,0.00,,,0.00,1.000000,,2013-01-21 13:02:00,
2013-01-21 08:12:00,65.0,55.0,-100.00,East,91,18.0,28.0,70,0.00,,,0.00,1.000000,,2013-01-21 13:12:00,
2013-01-21 08:23:00,65.0,55.0,-100.00,East,91,18.0,28.0,70,0.00,,,0.00,1.000000,,2013-01-21 13:23:00,
2013-01-21 08:32:00,65.0,55.0,-100.00,East,91,18.0,28.0,70,0.00,,,0.00,1.000000,,2013-01-21 13:32:00,
2013-01-21 08:53:00,64.0,54.0,-100.00,ESE,110,14.0,25.0,71,0.00,,,0.00,1.000000,,2013-01-21 13:53:00,
2013-01-21 09:03:00,64.0,54.0,-100.00,ESE,110,14.0,25.0,71,0.00,,,0.00,1.000000,,2013-01-21 14:03:00,
2013-01-21 09:12:00,64.0,54.0,-100.00,ESE,110,14.0,25.0,71,0.00,,,0.00,1.000000,,2013-01-21 14:12:00,
2013-01-21 09:22:00,64.0,54.0,-100.00,ESE,110,14.0,25.0,71,0.00,,,0.00,1.000000,,2013-01-21 14:22:00,
2013-01-21 09:32:00,64.0,54.0,-100.00,ESE,110,14.0,25.0,71,0.00,,,0.00,1.000000,,2013-01-21 14:32:00,
2013-01-21 09:53:00,65.0,55.0,-100.00,East,84,19.0,26.0,70,0.00,,,0.00,1.000000,,2013-01-21 14:53:00,
2013-01-21 10:03:00,65.0,55.0,-100.00,East,84,19.0,26.0,70,0.00,,,0.00,1.000000,,2013-01-21 15:03:00,
2013-01-21 10:13:00,65.0,55.0,-100.00,East,84,19.0,26.0,70,0.00,,,0.00,1.000000,,2013-01-21 15:13:00,
2013-01-21 10:22:00,65.0,55.0,-100.00,East,84,19.0,26.0,70,0.00,,,0.00,1.000000,,2013-01-21 15:22:00,
2013-01-21 10:32:00,65.0,55.0,-100.00,East,84,19.0,26.0,70,0.00,,,0.00,1.000000,,2013-01-21 15:32:00,
2013-01-21 10:53:00,65.0,54.0,-100.00,ENE,77,20.0,29.0,68,0.00,,,0.00,1.000000,,2013-01-21 15:53:00,
2013-01-21 11:03:00,65.0,54.0,-100.00,ENE,77,20.0,29.0,68,0.00,,,0.00,1.000000,,2013-01-21 16:03:00,
2013-01-21 11:12:00,65.0,54.0,-100.00,ENE,77,20.0,29.0,68,0.00,,,0.00,1.000000,,2013-01-21 16:12:00,
2013-01-21 11:23:00,65.0,54.0,-100.00,ENE,77,20.0,29.0,68,0.00,,,0.00,1.000000,,2013-01-21 16:23:00,
2013-01-21 11:32:00,65.0,54.0,-100.00,ENE,77,20.0,29.0,68,0.00,,,0.00,1.000000,,2013-01-21 16:32:00,
2013-01-21 11:53:00,65.0,53.0,-100.00,East,84,18.0,35.0,66,0.00,,,0.00,1.000000,,2013-01-21 16:53:00,
2013-01-21 12:02:00,65.0,53.0,-100.00,East,84,18.0,35.0,66,0.00,,,0.00,1.000000,,2013-01-21 17:02:00,
2013-01-21 12:12:00,65.0,53.0,-100.00,East,84,18.0,35.0,66,0.00,,,0.00,1.000000,,2013-01-21 17:12:00,
2013-01-21 12:22:00,65.0,53.0,-100.00,East,84,18.0,35.0,66,0.00,,,0.00,1.000000,,2013-01-21 17:22:00,
2013-01-21 12:33:00,65.0,53.0,-100.00,East,84,18.0,35.0,66,0.00,,,0.00,1.000000,,2013-01-21 17:33:00,
2013-01-21 12:53:00,66.0,55.0,-100.00,East,82,18.0,29.0,67,0.00,,,0.00,8.000000,,2013-01-21 17:53:00,
2013-01-21 13:02:00,66.0,55.0,-100.00,East,82,18.0,29.0,67,0.00,,,0.00,8.000000,,2013-01-21 18:02:00,
2013-01-21 13:12:00,66.0,55.0,-100.00,East,82,18.0,29.0,67,0.00,,,0.00,8.000000,,2013-01-21 18:12:00,
2013-01-21 13:22:00,66.0,55.0,-100.00,East,82,18.0,29.0,67,0.00,,,0.00,8.000000,,2013-01-21 18:22:00,
2013-01-21 13:33:00,66.0,55.0,-100.00,East,82,18.0,29.0,67,0.00,,,0.00,8.000000,,2013-01-21 18:33:00,
2013-01-21 13:53:00,69.0,54.0,-100.00,ENE,62,21.0,31.0,58,0.00,,,-99.99,194.000000,,2013-01-21 18:53:00,
2013-01-21 14:03:00,69.0,54.0,-100.00,ENE,62,21.0,31.0,58,0.00,,,-99.99,194.000000,,2013-01-21 19:03:00,
2013-01-21 14:12:00,69.0,54.0,-100.00,ENE,62,21.0,31.0,58,0.00,,,-99.99,194.000000,,2013-01-21 19:12:00,
2013-01-21 14:22:00,69.0,54.0,-100.00,ENE,62,21.0,31.0,58,0.00,,,-99.99,194.000000,,2013-01-21 19:22:00,
2013-01-21 14:32:00,69.0,54.0,-100.00,ENE,62,21.0,31.0,58,0.00,,,-99.99,194.000000,,2013-01-21 19:32:00,
2013-01-21 14:53:00,72.0,55.0,-100.00,ENE,58,22.0,32.0,55,0.00,,,0.00,420.000000,,2013-01-21 19:53:00,
2013-01-21 15:03:00,72.0,55.0,-100.00,ENE,58,22.0,32.0,55,0.00,,,0.00,420.000000,,2013-01-21 20:03:00,
2013-01-21 15:12:00,72.0,55.0,-100.00,ENE,58,22.0,32.0,55,0.00,,,0.00,420.000000,,2013-01-21 20:12:00,
2013-01-21 15:22:00,72.0,55.0,-100.00,ENE,58,22.0,32.0,55,0.00,,,0.00,420.000000,,2013-01-21 20:22:00,
2013-01-21 15:32:00,72.0,55.0,-100.00,ENE,58,22.0,32.0,55,0.00,,,0.00,420.000000,,2013-01-21 20:32:00,
2013-01-21 15:53:00,76.0,54.0,-100.00,NE,47,14.0,30.0,47,0.00,,,0.00,613.000000,,2013-01-21 20:53:00,
2013-01-21 16:03:00,76.0,54.0,-100.00,NE,47,14.0,30.0,47,0.00,,,0.00,613.000000,,2013-01-21 21:03:00,
2013-01-21 16:12:00,76.0,54.0,-100.00,NE,47,14.0,30.0,47,0.00,,,0.00,613.000000,,2013-01-21 21:12:00,
2013-01-21 16:22:00,76.0,54.0,-100.00,NE,47,14.0,30.0,47,0.00,,,0.00,613.000000,,2013-01-21 21:22:00,
2013-01-21 16:32:00,76.0,54.0,-100.00,NE,47,14.0,30.0,47,0.00,,,0.00,613.000000,,2013-01-21 21:32:00,
2013-01-21 17:03:00,78.0,51.0,-100.00,NE,51,16.0,29.0,39,0.00,,,0.00,747.000000,,2013-01-21 22:03:00,
2013-01-21 17:12:00,78.0,51.0,-100.00,NE,51,16.0,29.0,39,0.00,,,0.00,747.000000,,2013-01-21 22:12:00,
2013-01-21 17:22:00,78.0,51.0,-100.00,NE,51,16.0,29.0,39,0.00,,,0.00,747.000000,,2013-01-21 22:22:00,
2013-01-21 17:32:00,78.0,51.0,-100.00,NE,51,16.0,29.0,39,0.00,,,0.00,747.000000,,2013-01-21 22:32:00,
2013-01-21 17:53:00,78.0,52.0,-100.00,NW,310,8.0,27.0,40,0.00,,,0.00,816.000000,,2013-01-21 22:53:00,
2013-01-21 18:03:00,78.0,52.0,-100.00,NW,310,8.0,27.0,40,0.00,,,0.00,816.000000,,2013-01-21 23:03:00,
2013-01-21 18:12:00,78.0,52.0,-100.00,NW,310,8.0,27.0,40,0.00,,,0.00,816.000000,,2013-01-21 23:12:00,
2013-01-21 18:22:00,78.0,52.0,-100.00,NW,310,8.0,27.0,40,0.00,,,0.00,816.000000,,2013-01-21 23:22:00,
2013-01-21 18:32:00,78.0,52.0,-100.00,NW,310,8.0,27.0,40,0.00,,,0.00,816.000000,,2013-01-21 23:32:00,
2013-01-21 19:02:00,77.0,60.0,-100.00,WNW,296,12.0,16.0,55,0.00,,,0.00,822.000000,,2013-01-22 00:02:00,
2013-01-21 19:12:00,77.0,60.0,-100.00,WNW,296,12.0,16.0,55,0.00,,,0.00,822.000000,,2013-01-22 00:12:00,
2013-01-21 19:22:00,77.0,60.0,-100.00,WNW,296,12.0,16.0,55,0.00,,,0.00,822.000000,,2013-01-22 00:22:00,
2013-01-21 19:32:00,77.0,60.0,-100.00,WNW,296,12.0,16.0,55,0.00,,,0.00,822.000000,,2013-01-22 00:32:00,
2013-01-21 20:02:00,77.0,61.0,-100.00,WNW,296,8.0,16.0,57,0.00,,,0.00,733.000000,,2013-01-22 01:02:00,
2013-01-21 20:12:00,77.0,61.0,-100.00,WNW,296,8.0,16.0,57,0.00,,,0.00,733.000000,,2013-01-22 01:12:00,
2013-01-21 20:23:00,77.0,61.0,-100.00,WNW,296,8.0,16.0,57,0.00,,,0.00,733.000000,,2013-01-22 01:23:00,
2013-01-21 20:32:00,77.0,61.0,-100.00,WNW,296,8.0,16.0,57,0.00,,,0.00,733.000000,,2013-01-22 01:32:00,
2013-01-21 21:02:00,76.0,59.0,-100.00,WNW,299,6.0,14.0,56,0.00,,,0.00,509.000000,,2013-01-22 02:02:00,
2013-01-21 21:12:00,76.0,59.0,-100.00,WNW,299,6.0,14.0,56,0.00,,,0.00,509.000000,,2013-01-22 02:12:00,
2013-01-21 21:22:00,76.0,59.0,-100.00,WNW,299,6.0,14.0,56,0.00,,,0.00,509.000000,,2013-01-22 02:22:00,
2013-01-21 21:32:00,76.0,59.0,-100.00,WNW,299,6.0,14.0,56,0.00,,,0.00,509.000000,,2013-01-22 02:32:00,
2013-01-21 21:53:00,76.0,54.0,-100.00,NE,52,14.0,31.0,46,0.00,,,0.00,387.000000,,2013-01-22 02:53:00,
2013-01-21 22:02:00,76.0,54.0,-100.00,NE,52,14.0,31.0,46,0.00,,,0.00,387.000000,,2013-01-22 03:02:00,
2013-01-21 22:12:00,76.0,54.0,-100.00,NE,52,14.0,31.0,46,0.00,,,0.00,387.000000,,2013-01-22 03:12:00,
2013-01-21 22:22:00,76.0,54.0,-100.00,NE,52,14.0,31.0,46,0.00,,,0.00,387.000000,,2013-01-22 03:22:00,
2013-01-21 22:32:00,76.0,54.0,-100.00,NE,52,14.0,31.0,46,0.00,,,0.00,387.000000,,2013-01-22 03:32:00,
2013-01-21 22:53:00,74.0,53.0,-100.00,NNE,18,8.0,24.0,48,0.00,,,0.00,196.000000,,2013-01-22 03:53:00,
2013-01-21 23:02:00,74.0,53.0,-100.00,NNE,18,8.0,24.0,48,0.00,,,0.00,196.000000,,2013-01-22 04:02:00,
2013-01-21 23:12:00,74.0,53.0,-100.00,NNE,18,8.0,24.0,48,0.00,,,0.00,196.000000,,2013-01-22 04:12:00,
2013-01-21 23:22:00,74.0,53.0,-100.00,NNE,18,8.0,24.0,48,0.00,,,0.00,196.000000,,2013-01-22 04:22:00,
2013-01-21 23:32:00,74.0,53.0,-100.00,NNE,18,8.0,24.0,48,0.00,,,0.00,196.000000,,2013-01-22 04:32:00,
2013-01-21 23:52:00,69.0,54.0,-100.00,East,79,10.0,23.0,58,0.00,,,0.00,20.000000,,2013-01-22 04:52:00,